Time;durP1;ratioP1;P1;durP2;ratioP2;P2;SDS_P1;SDS_P2;PMS_P1;PMS_P2;Temp;Humidity;BMP_temperature;BMP_pressure;BME280_temperature;BME280_humidity;BME280_pressure;Samples;Min_cycle;Max_cycle;Signal;HPM_P1;HPM_P2
2022/01/01 00:01:38;;;;;;;21.77;10.98;;;;;;;-141.50;100.00;63355.56;5093857;28;20542;-80
2022/01/01 00:04:05;;;;;;;17.92;10.50;;;;;;;-141.50;100.00;63355.56;5093151;28;20052;-80
2022/01/01 00:06:31;;;;;;;18.90;10.75;;;;;;;-141.50;100.00;63355.56;5093745;28;20101;-82
2022/01/01 00:08:58;;;;;;;15.68;8.48;;;;;;;-141.50;100.00;63355.56;5092634;28;20413;-81
2022/01/01 00:11:24;;;;;;;15.07;8.75;;;;;;;-141.50;100.00;63355.56;5093209;28;20040;-78
2022/01/01 00:13:51;;;;;;;14.60;7.75;;;;;;;-141.50;100.00;63355.56;5083172;28;20132;-78
2022/01/01 00:16:18;;;;;;;14.55;7.32;;;;;;;-141.50;100.00;63355.56;5073211;28;20051;-79
2022/01/01 00:18:45;;;;;;;10.77;5.35;;;;;;;-141.50;100.00;63355.56;5068532;28;20059;-78
2022/01/01 00:21:11;;;;;;;11.75;6.82;;;;;;;-141.50;100.00;63355.56;5070717;28;20055;-78
2022/01/01 00:23:38;;;;;;;15.00;7.05;;;;;;;-141.50;100.00;63355.56;5070518;28;20078;-79
2022/01/01 00:26:04;;;;;;;17.65;7.32;;;;;;;-141.50;100.00;63355.56;5071378;28;20124;-78
2022/01/01 00:28:31;;;;;;;12.77;7.00;;;;;;;-141.50;100.00;63355.56;5069288;28;20144;-77
2022/01/01 00:30:57;;;;;;;15.18;7.13;;;;;;;-141.50;100.00;63355.56;5069776;28;20076;-78
2022/01/01 00:33:25;;;;;;;12.10;7.25;;;;;;;-141.50;100.00;63355.56;5069399;28;20052;-78
2022/01/01 00:35:52;;;;;;;16.27;7.95;;;;;;;-141.50;100.00;63355.56;5071370;28;20048;-78
2022/01/01 00:38:18;;;;;;;15.02;7.88;;;;;;;-141.50;100.00;63355.56;5070478;28;20048;-78
2022/01/01 00:40:45;;;;;;;14.65;8.13;;;;;;;-141.50;100.00;63355.56;5071072;28;20063;-78
2022/01/01 00:43:11;;;;;;;12.93;7.90;;;;;;;-141.50;100.00;63355.56;5069740;28;20067;-78
2022/01/01 00:45:38;;;;;;;17.00;8.38;;;;;;;-141.50;100.00;63355.56;5074981;28;20052;-78
2022/01/01 00:48:05;;;;;;;15.23;8.63;;;;;;;-141.50;100.00;63355.56;5074769;28;20048;-78
2022/01/01 00:50:32;;;;;;;16.10;7.72;;;;;;;-141.50;100.00;63355.56;5067868;28;20135;-78
2022/01/01 00:53:00;;;;;;;15.35;8.50;;;;;;;-141.50;100.00;63355.56;5072356;28;20052;-78
2022/01/01 00:55:26;;;;;;;15.45;8.00;;;;;;;-141.50;100.00;63355.56;5073129;28;20518;-78
2022/01/01 00:57:53;;;;;;;18.00;8.50;;;;;;;-141.50;100.00;63355.56;5071538;28;20052;-78
2022/01/01 01:00:20;;;;;;;17.58;9.60;;;;;;;-141.50;100.00;63355.56;5071087;28;20052;-78
2022/01/01 01:02:46;;;;;;;16.45;9.70;;;;;;;-141.50;100.00;63355.56;5069651;28;20049;-78
2022/01/01 01:05:13;;;;;;;15.30;9.68;;;;;;;-141.50;100.00;63355.56;5069819;28;20049;-79
2022/01/01 01:07:40;;;;;;;17.58;10.18;;;;;;;-141.50;100.00;63355.56;5069252;28;20106;-78
2022/01/01 01:10:07;;;;;;;19.45;10.27;;;;;;;-141.50;100.00;63355.56;5069823;28;20048;-78
2022/01/01 01:12:48;;;;;;;17.52;9.95;;;;;;;-141.50;100.00;63355.56;5073451;28;20051;-78
2022/01/01 01:15:18;;;;;;;17.58;9.10;;;;;;;-141.50;100.00;63355.56;5073066;28;20082;-78
2022/01/01 01:17:50;;;;;;;15.85;9.15;;;;;;;-141.50;100.00;63355.56;5072748;28;20049;-78
2022/01/01 01:20:18;;;;;;;16.17;8.82;;;;;;;-141.50;100.00;63355.56;5071628;28;20485;-78
2022/01/01 01:22:45;;;;;;;12.15;8.13;;;;;;;-141.50;100.00;63355.56;5070459;28;20573;-79
2022/01/01 01:25:13;;;;;;;17.67;9.23;;;;;;;-141.50;100.00;63355.56;5071075;28;20106;-78
2022/01/01 01:27:40;;;;;;;17.38;9.02;;;;;;;-141.50;100.00;63355.56;5070734;28;20120;-79
2022/01/01 01:30:10;;;;;;;13.38;7.93;;;;;;;-141.50;100.00;63355.56;5068134;28;20056;-78
2022/01/01 01:32:38;;;;;;;14.73;7.90;;;;;;;-141.50;100.00;63355.56;5067255;28;20583;-78
2022/01/01 01:35:06;;;;;;;14.20;7.60;;;;;;;-141.50;100.00;63355.56;5069821;28;20074;-78
2022/01/01 01:37:33;;;;;;;14.02;6.97;;;;;;;-141.50;100.00;63355.56;5067575;28;20549;-78
2022/01/01 01:40:00;;;;;;;12.35;7.03;;;;;;;-141.50;100.00;63355.56;5067390;28;20143;-78
2022/01/01 01:42:28;;;;;;;13.15;7.78;;;;;;;-141.50;100.00;63355.56;5068017;28;20052;-78
2022/01/01 01:44:56;;;;;;;14.50;7.15;;;;;;;-141.50;100.00;63355.56;5069286;28;20049;-77
2022/01/01 01:47:33;;;;;;;12.30;6.63;;;;;;;-141.50;100.00;63355.56;5068086;28;20056;-77
2022/01/01 01:50:05;;;;;;;13.95;6.53;;;;;;;-141.50;100.00;63355.56;5067289;28;20079;-80
2022/01/01 01:52:34;;;;;;;10.13;5.85;;;;;;;-141.50;100.00;63355.56;5069814;28;20106;-78
2022/01/01 01:55:03;;;;;;;13.40;6.00;;;;;;;-141.50;100.00;63355.56;5068951;28;20134;-79
2022/01/01 01:57:30;;;;;;;11.57;5.43;;;;;;;-141.50;100.00;63355.56;5069988;28;20106;-79
2022/01/01 01:59:57;;;;;;;9.82;5.80;;;;;;;-141.50;100.00;63355.56;5067597;28;20294;-79
2022/01/01 02:02:23;;;;;;;11.63;5.40;;;;;;;-141.50;100.00;63355.56;5069313;28;20114;-79
2022/01/01 02:04:50;;;;;;;187.00;105.05;;;;;;;-141.50;100.00;63355.56;5073697;28;20053;-79
2022/01/01 02:07:17;;;;;;;10.13;5.53;;;;;;;-141.50;100.00;63355.56;5073897;28;20048;-79
2022/01/01 02:09:44;;;;;;;9.02;5.53;;;;;;;-141.50;100.00;63355.56;5076888;28;20494;-77
2022/01/01 02:12:11;;;;;;;10.75;5.30;;;;;;;-141.50;100.00;63355.56;5077883;28;20053;-79
2022/01/01 02:17:29;;;;;;;10.32;5.18;;;;;;;-141.50;100.00;63355.56;5071852;28;20097;-78
2022/01/01 02:20:02;;;;;;;8.50;5.07;;;;;;;-141.50;100.00;63355.56;5093931;28;20052;-78
2022/01/01 02:22:37;;;;;;;10.40;4.45;;;;;;;-141.50;100.00;63355.56;5097273;28;20040;-77
2022/01/01 02:25:06;;;;;;;10.63;5.93;;;;;;;-141.50;100.00;63355.56;5078182;28;20074;-77
2022/01/01 02:27:36;;;;;;;8.35;4.65;;;;;;;-141.50;100.00;63355.56;5072496;28;20113;-78
2022/01/01 02:30:08;;;;;;;11.10;5.72;;;;;;;-141.50;100.00;63355.56;5073148;28;20052;-78
2022/01/01 02:32:35;;;;;;;9.50;5.25;;;;;;;-141.50;100.00;63355.56;5071735;28;20504;-78
2022/01/01 02:35:07;;;;;;;11.07;5.68;;;;;;;-141.50;100.00;63355.56;5073352;28;20079;-78
2022/01/01 02:37:38;;;;;;;8.68;4.78;;;;;;;-141.50;100.00;63355.56;5073821;28;20044;-78
2022/01/01 02:40:06;;;;;;;11.95;5.47;;;;;;;-141.50;100.00;63355.56;5072865;28;20076;-77
2022/01/01 02:42:33;;;;;;;8.05;4.63;;;;;;;-141.50;100.00;63355.56;5072536;28;20056;-79
2022/01/01 02:45:06;;;;;;;12.60;6.43;;;;;;;-141.50;100.00;63355.56;5072550;28;20048;-77
2022/01/01 02:47:32;;;;;;;12.57;5.60;;;;;;;-141.50;100.00;63355.56;5072543;28;20048;-78
2022/01/01 02:49:59;;;;;;;13.68;5.10;;;;;;;-141.50;100.00;63355.56;5070111;28;20060;-78
2022/01/01 02:52:26;;;;;;;9.88;5.18;;;;;;;-141.50;100.00;63355.56;5073331;28;20186;-78
2022/01/01 02:54:52;;;;;;;10.80;5.35;;;;;;;-141.50;100.00;63355.56;5075780;28;20082;-79
2022/01/01 02:57:20;;;;;;;10.50;4.97;;;;;;;-141.50;100.00;63355.56;5073642;28;20048;-79
2022/01/01 02:59:48;;;;;;;10.13;5.10;;;;;;;-141.50;100.00;63355.56;5073217;28;20495;-79
2022/01/01 03:02:15;;;;;;;8.75;5.28;;;;;;;-141.50;100.00;63355.56;5071821;28;20106;-79
2022/01/01 03:04:42;;;;;;;11.75;5.47;;;;;;;-141.50;100.00;63355.56;5071773;28;20052;-79
2022/01/01 03:07:08;;;;;;;8.60;5.28;;;;;;;-141.50;100.00;63355.56;5071494;28;20503;-79
2022/01/01 03:09:35;;;;;;;10.73;4.72;;;;;;;-141.50;100.00;63355.56;5071802;28;20053;-78
2022/01/01 03:12:07;;;;;;;10.55;4.55;;;;;;;-141.50;100.00;63355.56;5070732;28;20415;-78
2022/01/01 03:14:34;;;;;;;7.97;4.53;;;;;;;-141.50;100.00;63355.56;5074159;28;20052;-78
2022/01/01 03:17:01;;;;;;;10.85;4.85;;;;;;;-141.50;100.00;63355.56;5080548;28;20049;-78
2022/01/01 03:19:27;;;;;;;9.35;4.68;;;;;;;-141.50;100.00;63355.56;5087420;28;20163;-78
2022/01/01 03:21:54;;;;;;;8.98;4.75;;;;;;;-141.50;100.00;63355.56;5086573;28;20052;-78
2022/01/01 03:24:20;;;;;;;8.32;4.38;;;;;;;-141.50;100.00;63355.56;5086603;28;20079;-78
2022/01/01 03:26:50;;;;;;;9.32;4.30;;;;;;;-141.50;100.00;63355.56;5075171;28;20078;-78
2022/01/01 03:29:17;;;;;;;9.43;4.40;;;;;;;-141.50;100.00;63355.56;5071976;28;20071;-78
2022/01/01 03:31:43;;;;;;;7.95;4.15;;;;;;;-141.50;100.00;63355.56;5071556;28;20041;-76
2022/01/01 03:34:13;;;;;;;8.05;3.90;;;;;;;-141.50;100.00;63355.56;5074071;28;20056;-77
2022/01/01 03:36:44;;;;;;;8.10;4.32;;;;;;;-141.50;100.00;63355.56;5072718;28;20048;-78
2022/01/01 03:39:11;;;;;;;8.57;4.32;;;;;;;-141.50;100.00;63355.56;5073855;28;20094;-77
2022/01/01 03:41:37;;;;;;;10.57;4.68;;;;;;;-141.50;100.00;63355.56;5073302;28;20075;-77
2022/01/01 03:44:04;;;;;;;7.55;4.10;;;;;;;-141.50;100.00;63355.56;5074012;28;20052;-79
2022/01/01 03:46:31;;;;;;;10.65;3.83;;;;;;;-141.50;100.00;63355.56;5074288;28;20044;-78
2022/01/01 03:49:00;;;;;;;6.85;4.18;;;;;;;-141.50;100.00;63355.56;5070537;28;20573;-78
2022/01/01 03:51:27;;;;;;;8.70;4.38;;;;;;;-141.50;100.00;63355.56;5074225;28;20052;-78
2022/01/01 03:53:53;;;;;;;7.22;3.60;;;;;;;-141.50;100.00;63355.56;5090726;28;20052;-78
2022/01/01 03:56:20;;;;;;;8.70;4.07;;;;;;;-141.50;100.00;63355.56;5071818;28;20052;-78
2022/01/01 03:58:46;;;;;;;7.72;3.65;;;;;;;-141.50;100.00;63355.56;5070714;28;20048;-78
2022/01/01 04:01:13;;;;;;;6.88;3.60;;;;;;;-141.50;100.00;63355.56;5071744;28;20053;-78
2022/01/01 04:03:39;;;;;;;7.00;3.80;;;;;;;-141.50;100.00;63355.56;5071156;28;20576;-78
2022/01/01 04:06:06;;;;;;;6.90;4.00;;;;;;;-141.50;100.00;63355.56;5070471;28;20161;-78
2022/01/01 04:08:33;;;;;;;6.85;4.03;;;;;;;-141.50;100.00;63355.56;5070303;28;20109;-78
2022/01/01 04:10:59;;;;;;;6.28;3.78;;;;;;;-141.50;100.00;63355.56;5070971;28;20090;-78
2022/01/01 04:13:26;;;;;;;9.02;3.97;;;;;;;-141.50;100.00;63355.56;5072358;28;20501;-78
2022/01/01 04:15:53;;;;;;;6.88;3.50;;;;;;;-141.50;100.00;63355.56;5070721;28;20102;-78
2022/01/01 04:18:28;;;;;;;9.88;4.07;;;;;;;-141.50;100.00;63355.56;5070957;28;20048;-78
2022/01/01 04:20:54;;;;;;;9.50;3.92;;;;;;;-141.50;100.00;63355.56;5071943;28;20455;-79
2022/01/01 04:23:23;;;;;;;5.68;3.60;;;;;;;-141.50;100.00;63355.56;5072641;28;20148;-79
2022/01/01 04:25:49;;;;;;;6.47;3.50;;;;;;;-141.50;100.00;63355.56;5072042;28;20045;-78
2022/01/01 04:28:16;;;;;;;6.43;3.60;;;;;;;-141.50;100.00;63355.56;5070242;28;20048;-78
2022/01/01 04:30:43;;;;;;;5.60;3.33;;;;;;;-141.50;100.00;63355.56;5071611;28;20385;-79
2022/01/01 04:33:10;;;;;;;4.88;2.88;;;;;;;-141.50;100.00;63355.56;5071818;28;20560;-79
2022/01/01 04:35:36;;;;;;;7.03;3.40;;;;;;;-141.50;100.00;63355.56;5072763;28;20052;-78
2022/01/01 04:38:03;;;;;;;8.10;3.38;;;;;;;-141.50;100.00;63355.56;5083196;28;20077;-78
2022/01/01 04:40:30;;;;;;;7.10;3.25;;;;;;;-141.50;100.00;63355.56;5077448;28;20613;-79
2022/01/01 04:42:56;;;;;;;5.20;3.13;;;;;;;-141.50;100.00;63355.56;5071463;28;20151;-79
2022/01/01 04:45:22;;;;;;;7.53;3.15;;;;;;;-141.50;100.00;63355.56;5073964;28;20056;-79
2022/01/01 04:47:49;;;;;;;6.78;3.13;;;;;;;-141.50;100.00;63355.56;5072986;28;20051;-79
2022/01/01 04:50:16;;;;;;;5.57;3.03;;;;;;;-141.50;100.00;63355.56;5071196;28;20539;-79
2022/01/01 04:52:43;;;;;;;5.63;3.13;;;;;;;-141.50;100.00;63355.56;5071273;28;20040;-79
2022/01/01 04:55:10;;;;;;;6.47;2.92;;;;;;;-141.50;100.00;63355.56;5070965;28;20048;-79
2022/01/01 04:57:37;;;;;;;6.20;3.40;;;;;;;-141.50;100.00;63355.56;5071731;28;20036;-79
2022/01/01 05:00:04;;;;;;;6.30;3.20;;;;;;;-141.50;100.00;63355.56;5070780;28;20554;-79
2022/01/01 05:02:31;;;;;;;4.97;3.17;;;;;;;-141.50;100.00;63355.56;5096396;28;20047;-78
2022/01/01 05:04:57;;;;;;;7.30;3.67;;;;;;;-141.50;100.00;63355.56;5110245;28;20047;-79
2022/01/01 05:07:24;;;;;;;5.80;2.90;;;;;;;-141.50;100.00;63355.56;5112258;28;20073;-78
2022/01/01 05:09:50;;;;;;;6.15;3.33;;;;;;;-141.50;100.00;63355.56;5108609;28;20059;-79
2022/01/01 05:12:17;;;;;;;4.47;3.08;;;;;;;-141.50;100.00;63355.56;5109499;28;20074;-79
2022/01/01 05:14:44;;;;;;;7.13;2.90;;;;;;;-141.50;100.00;63355.56;5110156;28;20487;-78
2022/01/01 05:17:12;;;;;;;5.10;3.05;;;;;;;-141.50;100.00;63355.56;5109086;28;20112;-79
2022/01/01 05:19:38;;;;;;;5.32;3.20;;;;;;;-141.50;100.00;63355.56;5110172;28;20052;-79
2022/01/01 05:22:05;;;;;;;5.53;3.20;;;;;;;-141.50;100.00;63355.56;5109051;28;20051;-79
2022/01/01 05:24:31;;;;;;;7.00;3.13;;;;;;;-141.50;100.00;63355.56;5112343;28;20044;-79
2022/01/01 05:26:58;;;;;;;7.93;2.85;;;;;;;-141.50;100.00;63355.56;5111373;28;20280;-78
2022/01/01 05:29:25;;;;;;;5.25;2.72;;;;;;;-141.50;100.00;63355.56;5113173;28;20060;-78
2022/01/01 05:31:51;;;;;;;6.15;2.97;;;;;;;-141.50;100.00;63355.56;5109905;28;20399;-79
2022/01/01 05:34:18;;;;;;;5.68;2.70;;;;;;;-141.50;100.00;63355.56;5110349;28;20113;-79
2022/01/01 05:36:44;;;;;;;5.05;2.63;;;;;;;-141.50;100.00;63355.56;5113535;28;20389;-79
2022/01/01 05:39:11;;;;;;;5.15;2.55;;;;;;;-141.50;100.00;63355.56;5117162;28;20051;-79
2022/01/01 05:41:38;;;;;;;4.53;2.67;;;;;;;-141.50;100.00;63355.56;5119584;28;20546;-78
2022/01/01 05:44:04;;;;;;;5.28;2.63;;;;;;;-141.50;100.00;63355.56;5137866;28;20035;-79
2022/01/01 05:46:32;;;;;;;4.32;2.50;;;;;;;-141.50;100.00;63355.56;5141153;28;20117;-78
2022/01/01 05:48:58;;;;;;;5.18;2.75;;;;;;;-141.50;100.00;63355.56;5119856;28;20407;-78
2022/01/01 05:51:25;;;;;;;7.10;2.50;;;;;;;-141.50;100.00;63355.56;5116794;28;20047;-79
2022/01/01 05:53:51;;;;;;;3.65;2.40;;;;;;;-141.50;100.00;63355.56;5116050;28;20069;-78
2022/01/01 05:56:18;;;;;;;6.07;2.30;;;;;;;-141.50;100.00;63355.56;5116424;28;20079;-77
2022/01/01 05:58:47;;;;;;;5.45;2.53;;;;;;;-141.50;100.00;63355.56;5116453;28;20054;-77
2022/01/01 06:01:14;;;;;;;4.70;2.00;;;;;;;-141.50;100.00;63355.56;5116255;28;20159;-78
2022/01/01 06:03:41;;;;;;;3.75;2.22;;;;;;;-141.50;100.00;63355.56;5115173;28;20071;-78
2022/01/01 06:06:07;;;;;;;6.07;2.25;;;;;;;-141.50;100.00;63355.56;5116741;28;20109;-79
2022/01/01 06:08:54;;;;;;;5.85;2.30;;;;;;;-141.50;100.00;63355.56;5115626;28;20048;-79
2022/01/01 06:11:20;;;;;;;3.95;2.40;;;;;;;-141.50;100.00;63355.56;5117033;28;20054;-78
2022/01/01 06:13:47;;;;;;;4.28;2.25;;;;;;;-141.50;100.00;63355.56;5117778;28;20071;-78
2022/01/01 06:16:14;;;;;;;3.30;2.05;;;;;;;-141.50;100.00;63355.56;5118076;28;20051;-78
2022/01/01 06:18:40;;;;;;;4.22;2.38;;;;;;;-141.50;100.00;63355.56;5115231;28;20047;-79
2022/01/01 06:21:07;;;;;;;4.95;2.17;;;;;;;-141.50;100.00;63355.56;5116747;27;20097;-78
2022/01/01 06:23:37;;;;;;;4.63;2.20;;;;;;;-141.50;100.00;63355.56;5117196;28;20097;-79
2022/01/01 06:26:04;;;;;;;4.22;2.30;;;;;;;-141.50;100.00;63355.56;5116476;28;20100;-78
2022/01/01 06:28:31;;;;;;;5.97;2.30;;;;;;;-141.50;100.00;63355.56;5113981;28;20108;-79
2022/01/01 06:30:57;;;;;;;4.80;2.45;;;;;;;-141.50;100.00;63355.56;5115920;28;20348;-79
2022/01/01 06:33:24;;;;;;;3.95;2.25;;;;;;;-141.50;100.00;63355.56;5114887;28;20150;-78
2022/01/01 06:35:51;;;;;;;4.78;1.95;;;;;;;-141.50;100.00;63355.56;5114791;28;20052;-78
2022/01/01 06:38:17;;;;;;;6.60;2.60;;;;;;;-141.50;100.00;63355.56;5115581;28;20047;-79
2022/01/01 06:40:44;;;;;;;4.70;1.98;;;;;;;-141.50;100.00;63355.56;5116352;28;20048;-78
2022/01/01 06:43:13;;;;;;;3.03;1.90;;;;;;;-141.50;100.00;63355.56;5116777;28;20048;-78
2022/01/01 06:45:40;;;;;;;3.75;2.00;;;;;;;-141.50;100.00;63355.56;5115806;28;20112;-78
2022/01/01 06:48:07;;;;;;;3.83;2.28;;;;;;;-141.50;100.00;63355.56;5115941;28;20108;-77
2022/01/01 06:50:36;;;;;;;4.32;2.10;;;;;;;-141.50;100.00;63355.56;5114558;28;20044;-78
2022/01/01 06:53:17;;;;;;;4.85;1.65;;;;;;;-141.50;100.00;63355.56;5116784;28;20043;-78
2022/01/01 06:55:44;;;;;;;4.70;2.42;;;;;;;-141.50;100.00;63355.56;5116210;28;20075;-78
2022/01/01 06:58:10;;;;;;;4.03;2.35;;;;;;;-141.50;100.00;63355.56;5115408;28;20465;-77
2022/01/01 07:00:37;;;;;;;3.50;2.38;;;;;;;-141.50;100.00;63355.56;5116627;28;20620;-78
2022/01/01 07:03:04;;;;;;;4.05;2.15;;;;;;;-141.50;100.00;63355.56;5126356;28;20074;-77
2022/01/01 07:05:31;;;;;;;4.13;2.45;;;;;;;-141.50;100.00;63355.56;5134529;28;20503;-77
2022/01/01 07:07:58;;;;;;;3.72;2.17;;;;;;;-141.50;100.00;63355.56;5116873;28;20726;-78
2022/01/01 07:10:25;;;;;;;4.35;2.15;;;;;;;-141.50;100.00;63355.56;5112111;28;20543;-77
2022/01/01 07:12:53;;;;;;;5.32;2.35;;;;;;;-141.50;100.00;63355.56;5112208;28;20097;-78
2022/01/01 07:15:20;;;;;;;3.97;2.50;;;;;;;-141.50;100.00;63355.56;5113673;28;20084;-77
2022/01/01 07:17:46;;;;;;;3.42;2.35;;;;;;;-141.50;100.00;63355.56;5112425;28;20074;-78
2022/01/01 07:20:13;;;;;;;3.80;2.20;;;;;;;-141.50;100.00;63355.56;5113162;28;20079;-78
2022/01/01 07:22:45;;;;;;;4.60;2.15;;;;;;;-141.50;100.00;63355.56;5105524;28;20044;-77
2022/01/01 07:25:14;;;;;;;3.78;1.90;;;;;;;-141.50;100.00;63355.56;5094016;28;20645;-76
2022/01/01 07:27:41;;;;;;;3.58;1.98;;;;;;;-141.50;100.00;63355.56;5092258;28;20044;-78
2022/01/01 07:30:08;;;;;;;3.03;2.03;;;;;;;-141.50;100.00;63355.56;5092378;28;20097;-79
2022/01/01 07:32:42;;;;;;;3.85;1.90;;;;;;;-141.50;100.00;63355.56;5091874;28;20086;-79
2022/01/01 07:35:11;;;;;;;4.72;2.10;;;;;;;-141.50;100.00;63355.56;5092761;28;20457;-78
2022/01/01 07:37:38;;;;;;;3.45;1.85;;;;;;;-141.50;100.00;63355.56;5092649;28;20048;-79
2022/01/01 07:40:06;;;;;;;5.30;2.25;;;;;;;-141.50;100.00;63355.56;5092743;28;20070;-77
2022/01/01 07:42:36;;;;;;;5.15;2.20;;;;;;;-141.50;100.00;63355.56;5088889;28;20052;-79
2022/01/01 07:45:05;;;;;;;4.82;2.40;;;;;;;-141.50;100.00;63355.56;5092755;28;20048;-79
2022/01/01 07:47:35;;;;;;;3.22;2.10;;;;;;;-141.50;100.00;63355.56;5093607;28;20048;-79
2022/01/01 07:50:03;;;;;;;4.40;2.40;;;;;;;-141.50;100.00;63355.56;5092521;28;20058;-79
2022/01/01 07:52:29;;;;;;;3.80;2.28;;;;;;;-141.50;100.00;63355.56;5094652;28;20048;-78
2022/01/01 07:55:03;;;;;;;3.33;2.15;;;;;;;-141.50;100.00;63355.56;5094808;28;20098;-79
2022/01/01 07:57:29;;;;;;;5.25;2.20;;;;;;;-141.50;100.00;63355.56;5094266;28;20047;-78
2022/01/01 07:59:56;;;;;;;4.55;2.20;;;;;;;-141.50;100.00;63355.56;5091193;28;20479;-79
2022/01/01 08:02:23;;;;;;;5.45;2.25;;;;;;;-141.50;100.00;63355.56;5092115;28;20563;-79
2022/01/01 08:04:50;;;;;;;4.93;2.00;;;;;;;-141.50;100.00;63355.56;5092909;28;20140;-78
2022/01/01 08:07:17;;;;;;;2.83;1.70;;;;;;;-141.50;100.00;63355.56;5092752;28;20052;-78
2022/01/01 08:10:05;;;;;;;5.47;2.53;;;;;;;-141.50;100.00;63355.56;5091069;28;20059;-77
2022/01/01 08:12:31;;;;;;;4.57;2.10;;;;;;;-141.50;100.00;63355.56;5091503;28;20093;-79
2022/01/01 08:14:58;;;;;;;5.53;2.20;;;;;;;-141.50;100.00;63355.56;5093074;28;20484;-79
2022/01/01 08:17:25;;;;;;;3.40;2.15;;;;;;;-141.50;100.00;63355.56;5091091;28;20093;-78
2022/01/01 08:19:51;;;;;;;4.82;2.13;;;;;;;-141.50;100.00;63355.56;5079245;28;20106;-78
2022/01/01 08:22:18;;;;;;;4.75;2.15;;;;;;;-141.50;100.00;63355.56;5078322;28;20559;-78
2022/01/01 08:24:46;;;;;;;5.85;2.00;;;;;;;-141.50;100.00;63355.56;5073344;28;20041;-77
2022/01/01 08:27:12;;;;;;;4.10;1.90;;;;;;;-141.50;100.00;63355.56;5069945;28;20052;-79
2022/01/01 08:29:43;;;;;;;4.35;1.98;;;;;;;-141.50;100.00;63355.56;5070660;28;20068;-78
2022/01/01 08:32:10;;;;;;;3.47;2.03;;;;;;;-141.50;100.00;63355.56;5068649;28;20056;-79
2022/01/01 08:34:37;;;;;;;7.28;2.40;;;;;;;-141.50;100.00;63355.56;5071555;28;20048;-79
2022/01/01 08:37:04;;;;;;;4.75;1.90;;;;;;;-141.50;100.00;63355.56;5081318;28;20052;-79
2022/01/01 08:39:30;;;;;;;5.03;1.95;;;;;;;-141.50;100.00;63355.56;5078832;28;20041;-79
2022/01/01 08:41:57;;;;;;;3.58;1.85;;;;;;;-141.50;100.00;63355.56;5077822;28;20048;-79
2022/01/01 08:44:23;;;;;;;6.60;2.38;;;;;;;-141.50;100.00;63355.56;5082316;28;20048;-79
2022/01/01 08:46:50;;;;;;;5.07;2.10;;;;;;;-141.50;100.00;63355.56;5081939;28;20107;-77
2022/01/01 08:49:18;;;;;;;4.15;2.20;;;;;;;-141.50;100.00;63355.56;5076237;28;20516;-77
2022/01/01 08:51:44;;;;;;;4.63;2.28;;;;;;;-141.50;100.00;63355.56;5079595;28;20074;-77
2022/01/01 08:54:13;;;;;;;5.20;2.40;;;;;;;-141.50;100.00;63355.56;5081067;28;20094;-78
2022/01/01 08:56:41;;;;;;;5.68;2.53;;;;;;;-141.50;100.00;63355.56;5072011;28;20140;-77
2022/01/01 08:59:07;;;;;;;8.55;2.28;;;;;;;-141.50;100.00;63355.56;5069851;28;20157;-78
2022/01/01 09:01:34;;;;;;;6.18;2.47;;;;;;;-141.50;100.00;63355.56;5072524;28;20074;-77
2022/01/01 09:04:01;;;;;;;5.40;2.30;;;;;;;-141.50;100.00;63355.56;5073057;28;20546;-77
2022/01/01 09:06:27;;;;;;;4.93;2.47;;;;;;;-141.50;100.00;63355.56;5095353;28;20061;-77
2022/01/01 09:08:54;;;;;;;8.63;2.90;;;;;;;-141.50;100.00;63355.56;5095479;28;20081;-77
2022/01/01 09:11:22;;;;;;;5.55;2.47;;;;;;;-141.50;100.00;63355.56;5086270;28;20047;-78
2022/01/01 09:13:49;;;;;;;7.57;2.72;;;;;;;-141.50;100.00;63355.56;5073238;28;20049;-76
2022/01/01 09:16:18;;;;;;;6.05;2.47;;;;;;;-141.50;100.00;63355.56;5076986;28;20075;-77
2022/01/01 09:18:46;;;;;;;7.80;2.85;;;;;;;-141.50;100.00;63355.56;5071886;28;20052;-76
2022/01/01 09:21:13;;;;;;;6.50;2.67;;;;;;;-141.50;100.00;63355.56;5071110;28;20056;-77
2022/01/01 09:23:40;;;;;;;5.78;2.67;;;;;;;-141.50;100.00;63355.56;5076614;28;20750;-78
2022/01/01 09:26:07;;;;;;;8.60;2.88;;;;;;;-141.50;100.00;63355.56;5075859;28;20118;-77
2022/01/01 09:28:34;;;;;;;6.97;3.35;;;;;;;-141.50;100.00;63355.56;5084297;28;20129;-77
2022/01/01 09:31:02;;;;;;;7.45;3.20;;;;;;;-141.50;100.00;63355.56;5076360;28;20053;-77
2022/01/01 09:33:32;;;;;;;8.45;3.30;;;;;;;-141.50;100.00;63355.56;5069446;28;20121;-77
2022/01/01 09:36:00;;;;;;;8.10;3.33;;;;;;;-141.50;100.00;63355.56;5070822;28;20072;-77
2022/01/01 09:38:27;;;;;;;8.75;3.25;;;;;;;-141.50;100.00;63355.56;5065339;28;20094;-76
2022/01/01 09:40:55;;;;;;;7.97;2.90;;;;;;;-141.50;100.00;63355.56;5064745;28;20117;-77
2022/01/01 09:43:23;;;;;;;8.13;3.05;;;;;;;-141.50;100.00;63355.56;5082588;28;20052;-78
2022/01/01 09:45:51;;;;;;;6.45;3.40;;;;;;;-141.50;100.00;63355.56;5085358;28;20495;-77
2022/01/01 09:48:20;;;;;;;10.43;3.10;;;;;;;-141.50;100.00;63355.56;5083604;28;20097;-79
2022/01/01 09:50:49;;;;;;;7.72;2.97;;;;;;;-141.50;100.00;63355.56;5085304;28;20078;-82
2022/01/01 09:53:17;;;;;;;13.32;3.33;;;;;;;-141.50;100.00;63355.56;5084334;28;20093;-78
2022/01/01 09:55:44;;;;;;;8.07;2.78;;;;;;;-141.50;100.00;63355.56;5089525;28;20064;-79
2022/01/01 09:58:11;;;;;;;9.65;2.90;;;;;;;-141.50;100.00;63355.56;5085018;28;20052;-78
2022/01/01 10:00:37;;;;;;;8.65;3.40;;;;;;;-141.50;100.00;63355.56;5085779;28;20124;-78
2022/01/01 10:03:04;;;;;;;7.03;3.08;;;;;;;-141.50;100.00;63355.56;5085874;28;20091;-77
2022/01/01 10:05:31;;;;;;;8.65;3.08;;;;;;;-141.50;100.00;63355.56;5093015;28;20143;-79
2022/01/01 10:08:00;;;;;;;8.43;3.30;;;;;;;-141.50;100.00;63355.56;5090175;28;20084;-79
2022/01/01 10:10:27;;;;;;;7.47;3.08;;;;;;;-141.50;100.00;63355.56;5082930;28;20082;-77
2022/01/01 10:12:54;;;;;;;9.85;3.28;;;;;;;-141.50;100.00;63355.56;5084370;28;20048;-77
2022/01/01 10:15:20;;;;;;;10.32;3.45;;;;;;;-141.50;100.00;63355.56;5083479;28;20561;-80
2022/01/01 10:17:47;;;;;;;10.05;3.15;;;;;;;-141.50;100.00;63355.56;5071159;28;20056;-79
2022/01/01 10:20:14;;;;;;;8.77;3.47;;;;;;;-141.50;100.00;63355.56;5072406;28;20053;-79
2022/01/01 10:22:45;;;;;;;7.72;3.20;;;;;;;-141.50;100.00;63355.56;5065168;28;20137;-79
2022/01/01 10:28:00;;;;;;;12.95;4.20;;;;;;;-141.50;100.00;63355.56;5070418;28;20056;-78
2022/01/01 10:30:40;;;;;;;9.13;3.00;;;;;;;-141.50;100.00;63355.56;5071699;28;20542;-79
2022/01/01 10:33:18;;;;;;;6.75;3.13;;;;;;;-141.50;100.00;63355.56;5069512;28;20403;-79
2022/01/01 10:35:58;;;;;;;6.10;3.00;;;;;;;-141.50;100.00;63355.56;5071591;28;20056;-81
2022/01/01 10:38:27;;;;;;;9.45;2.90;;;;;;;-141.50;100.00;63355.56;5072320;28;20083;-80
2022/01/01 10:41:08;;;;;;;6.05;3.08;;;;;;;-141.50;100.00;63355.56;5072702;28;20328;-81
2022/01/01 10:43:40;;;;;;;9.60;3.63;;;;;;;-141.50;100.00;63355.56;5071099;28;20276;-80
2022/01/01 10:46:13;;;;;;;9.40;3.35;;;;;;;-141.50;100.00;63355.56;5076637;28;20396;-79
2022/01/01 10:48:54;;;;;;;9.43;3.33;;;;;;;-141.50;100.00;63355.56;5073356;28;20053;-79
2022/01/01 10:51:21;;;;;;;11.40;3.70;;;;;;;-141.50;100.00;63355.56;5083681;28;20118;-79
2022/01/01 10:53:59;;;;;;;9.30;3.25;;;;;;;-141.50;100.00;63355.56;5096514;28;20078;-79
2022/01/01 10:56:35;;;;;;;9.55;3.53;;;;;;;-141.50;100.00;63355.56;5093165;28;20056;-79
2022/01/01 10:59:03;;;;;;;11.45;3.45;;;;;;;-141.50;100.00;63355.56;5093708;28;20588;-80
2022/01/01 11:01:33;;;;;;;8.00;2.88;;;;;;;-141.50;100.00;63355.56;5094375;28;20105;-79
2022/01/01 11:04:01;;;;;;;9.07;3.45;;;;;;;-141.50;100.00;63355.56;5092820;28;20474;-81
2022/01/01 11:06:33;;;;;;;9.32;3.50;;;;;;;-141.50;100.00;63355.56;5094081;28;20090;-81
2022/01/01 11:09:00;;;;;;;9.30;3.70;;;;;;;-141.50;100.00;63355.56;5092023;28;20082;-81
2022/01/01 11:11:27;;;;;;;11.02;4.18;;;;;;;-141.50;100.00;63355.56;5092423;28;20084;-79
2022/01/01 11:13:53;;;;;;;9.32;3.65;;;;;;;-141.50;100.00;63355.56;5089344;28;20074;-80
2022/01/01 11:16:21;;;;;;;9.07;3.83;;;;;;;-141.50;100.00;63355.56;5088345;28;20056;-81